sensor_id;sensor_type;location;lat;lon;timestamp;temperature;humidity
55721;DHT22;41626;53.098;6.168;2022-11-09T00:01:23;11.40;99.90
55721;DHT22;41626;53.098;6.168;2022-11-09T00:03:56;11.40;99.90
55721;DHT22;41626;53.098;6.168;2022-11-09T00:06:23;11.50;99.90
55721;DHT22;41626;53.098;6.168;2022-11-09T00:08:49;11.40;99.90
55721;DHT22;41626;53.098;6.168;2022-11-09T00:11:15;11.60;99.90
55721;DHT22;41626;53.098;6.168;2022-11-09T00:13:42;11.40;99.90
55721;DHT22;41626;53.098;6.168;2022-11-09T00:16:09;11.50;99.90
55721;DHT22;41626;53.098;6.168;2022-11-09T00:18:36;11.60;99.90
55721;DHT22;41626;53.098;6.168;2022-11-09T00:21:10;11.60;99.90
55721;DHT22;41626;53.098;6.168;2022-11-09T00:23:36;11.60;99.90
55721;DHT22;41626;53.098;6.168;2022-11-09T00:26:03;11.50;99.90
55721;DHT22;41626;53.098;6.168;2022-11-09T00:28:30;11.70;99.90
55721;DHT22;41626;53.098;6.168;2022-11-09T00:31:04;11.60;99.90
55721;DHT22;41626;53.098;6.168;2022-11-09T00:33:30;11.70;99.90
55721;DHT22;41626;53.098;6.168;2022-11-09T00:35:56;11.60;99.90
55721;DHT22;41626;53.098;6.168;2022-11-09T00:38:22;11.60;99.90
55721;DHT22;41626;53.098;6.168;2022-11-09T00:40:48;11.50;99.90
55721;DHT22;41626;53.098;6.168;2022-11-09T00:43:13;11.40;99.90
55721;DHT22;41626;53.098;6.168;2022-11-09T00:45:39;11.40;99.90
55721;DHT22;41626;53.098;6.168;2022-11-09T00:48:06;11.50;99.90
55721;DHT22;41626;53.098;6.168;2022-11-09T00:50:31;11.60;99.90
55721;DHT22;41626;53.098;6.168;2022-11-09T00:52:58;11.60;99.90
55721;DHT22;41626;53.098;6.168;2022-11-09T00:55:24;11.60;99.90
55721;DHT22;41626;53.098;6.168;2022-11-09T00:57:50;11.80;99.90
55721;DHT22;41626;53.098;6.168;2022-11-09T01:00:20;11.60;99.90
55721;DHT22;41626;53.098;6.168;2022-11-09T01:02:46;11.70;99.90
55721;DHT22;41626;53.098;6.168;2022-11-09T01:05:13;11.70;99.90
55721;DHT22;41626;53.098;6.168;2022-11-09T01:07:39;11.80;99.90
55721;DHT22;41626;53.098;6.168;2022-11-09T01:10:06;12.00;99.90
55721;DHT22;41626;53.098;6.168;2022-11-09T01:12:31;12.00;99.90
55721;DHT22;41626;53.098;6.168;2022-11-09T01:14:57;12.00;99.90
55721;DHT22;41626;53.098;6.168;2022-11-09T01:17:23;12.20;99.90
55721;DHT22;41626;53.098;6.168;2022-11-09T01:19:49;12.00;99.90
55721;DHT22;41626;53.098;6.168;2022-11-09T01:22:15;12.10;99.90
55721;DHT22;41626;53.098;6.168;2022-11-09T01:24:41;12.00;99.90
55721;DHT22;41626;53.098;6.168;2022-11-09T01:27:07;12.10;99.90
55721;DHT22;41626;53.098;6.168;2022-11-09T01:29:33;12.10;99.90
55721;DHT22;41626;53.098;6.168;2022-11-09T01:31:58;12.10;99.90
55721;DHT22;41626;53.098;6.168;2022-11-09T01:34:26;12.10;99.90
55721;DHT22;41626;53.098;6.168;2022-11-09T01:36:52;12.20;99.90
55721;DHT22;41626;53.098;6.168;2022-11-09T01:39:18;12.00;99.90
55721;DHT22;41626;53.098;6.168;2022-11-09T01:41:45;11.90;99.90
55721;DHT22;41626;53.098;6.168;2022-11-09T01:44:18;11.90;99.90
55721;DHT22;41626;53.098;6.168;2022-11-09T01:46:49;11.90;99.90
55721;DHT22;41626;53.098;6.168;2022-11-09T01:49:52;11.80;99.90
55721;DHT22;41626;53.098;6.168;2022-11-09T01:52:29;12.00;99.90
55721;DHT22;41626;53.098;6.168;2022-11-09T01:55:05;11.90;99.90
55721;DHT22;41626;53.098;6.168;2022-11-09T01:57:35;12.00;99.90
55721;DHT22;41626;53.098;6.168;2022-11-09T02:00:08;11.80;99.90
55721;DHT22;41626;53.098;6.168;2022-11-09T02:02:37;11.80;99.90
55721;DHT22;41626;53.098;6.168;2022-11-09T02:05:06;12.00;99.90
55721;DHT22;41626;53.098;6.168;2022-11-09T02:07:33;11.90;99.90
55721;DHT22;41626;53.098;6.168;2022-11-09T02:10:05;11.90;99.90
55721;DHT22;41626;53.098;6.168;2022-11-09T02:12:33;11.90;99.90
55721;DHT22;41626;53.098;6.168;2022-11-09T02:15:02;11.80;99.90
55721;DHT22;41626;53.098;6.168;2022-11-09T02:17:29;11.70;99.90
55721;DHT22;41626;53.098;6.168;2022-11-09T02:19:58;11.80;99.90
55721;DHT22;41626;53.098;6.168;2022-11-09T02:22:23;11.70;99.90
55721;DHT22;41626;53.098;6.168;2022-11-09T02:24:49;11.90;99.90
55721;DHT22;41626;53.098;6.168;2022-11-09T02:27:15;11.80;99.90
55721;DHT22;41626;53.098;6.168;2022-11-09T02:29:44;11.90;99.90
55721;DHT22;41626;53.098;6.168;2022-11-09T02:32:18;11.70;99.90
55721;DHT22;41626;53.098;6.168;2022-11-09T02:34:45;11.70;99.90
55721;DHT22;41626;53.098;6.168;2022-11-09T02:37:11;11.60;99.90
55721;DHT22;41626;53.098;6.168;2022-11-09T02:39:37;11.70;99.90
55721;DHT22;41626;53.098;6.168;2022-11-09T02:42:08;11.60;99.90
55721;DHT22;41626;53.098;6.168;2022-11-09T02:44:38;11.50;99.90
55721;DHT22;41626;53.098;6.168;2022-11-09T02:47:05;11.70;99.90
55721;DHT22;41626;53.098;6.168;2022-11-09T02:49:30;11.70;99.90
55721;DHT22;41626;53.098;6.168;2022-11-09T02:51:56;11.80;99.90
55721;DHT22;41626;53.098;6.168;2022-11-09T02:54:22;11.70;99.90
55721;DHT22;41626;53.098;6.168;2022-11-09T02:56:47;11.80;99.90
55721;DHT22;41626;53.098;6.168;2022-11-09T02:59:13;11.70;99.90
55721;DHT22;41626;53.098;6.168;2022-11-09T03:01:39;11.70;99.90
55721;DHT22;41626;53.098;6.168;2022-11-09T03:04:04;11.60;99.90
55721;DHT22;41626;53.098;6.168;2022-11-09T03:06:30;11.50;99.90
55721;DHT22;41626;53.098;6.168;2022-11-09T03:09:09;11.70;99.90
55721;DHT22;41626;53.098;6.168;2022-11-09T03:11:36;11.60;99.90
55721;DHT22;41626;53.098;6.168;2022-11-09T03:14:02;11.50;99.90
55721;DHT22;41626;53.098;6.168;2022-11-09T03:16:28;11.60;99.90
55721;DHT22;41626;53.098;6.168;2022-11-09T03:18:54;11.50;99.90
55721;DHT22;41626;53.098;6.168;2022-11-09T03:21:21;11.50;99.90
55721;DHT22;41626;53.098;6.168;2022-11-09T03:23:47;11.60;99.90
55721;DHT22;41626;53.098;6.168;2022-11-09T03:26:13;11.50;99.90
55721;DHT22;41626;53.098;6.168;2022-11-09T03:28:39;11.60;99.90
55721;DHT22;41626;53.098;6.168;2022-11-09T03:31:05;11.60;99.90
55721;DHT22;41626;53.098;6.168;2022-11-09T03:33:32;11.60;99.90
55721;DHT22;41626;53.098;6.168;2022-11-09T03:35:57;11.60;99.90
55721;DHT22;41626;53.098;6.168;2022-11-09T03:38:23;11.60;99.90
55721;DHT22;41626;53.098;6.168;2022-11-09T03:40:49;11.50;99.90
55721;DHT22;41626;53.098;6.168;2022-11-09T03:43:14;11.50;99.90
55721;DHT22;41626;53.098;6.168;2022-11-09T03:45:40;11.40;99.90
55721;DHT22;41626;53.098;6.168;2022-11-09T03:48:06;11.40;99.90
55721;DHT22;41626;53.098;6.168;2022-11-09T03:50:33;11.30;99.90
55721;DHT22;41626;53.098;6.168;2022-11-09T03:52:59;11.40;99.90
55721;DHT22;41626;53.098;6.168;2022-11-09T03:55:26;11.40;99.90
55721;DHT22;41626;53.098;6.168;2022-11-09T03:57:52;11.30;99.90
55721;DHT22;41626;53.098;6.168;2022-11-09T04:00:20;11.50;99.90
55721;DHT22;41626;53.098;6.168;2022-11-09T04:02:46;11.40;99.90
55721;DHT22;41626;53.098;6.168;2022-11-09T04:05:12;11.50;99.90
55721;DHT22;41626;53.098;6.168;2022-11-09T04:07:39;11.50;99.90
55721;DHT22;41626;53.098;6.168;2022-11-09T04:10:05;11.50;99.90
55721;DHT22;41626;53.098;6.168;2022-11-09T04:12:31;11.50;99.90
55721;DHT22;41626;53.098;6.168;2022-11-09T04:14:57;11.30;99.90
55721;DHT22;41626;53.098;6.168;2022-11-09T04:17:23;11.40;99.90
55721;DHT22;41626;53.098;6.168;2022-11-09T04:19:48;11.50;99.90
55721;DHT22;41626;53.098;6.168;2022-11-09T04:22:14;11.50;99.90
55721;DHT22;41626;53.098;6.168;2022-11-09T04:24:39;11.40;99.90
55721;DHT22;41626;53.098;6.168;2022-11-09T04:27:05;11.50;99.90
55721;DHT22;41626;53.098;6.168;2022-11-09T04:29:31;11.50;99.90
55721;DHT22;41626;53.098;6.168;2022-11-09T04:31:57;11.50;99.90
55721;DHT22;41626;53.098;6.168;2022-11-09T04:34:22;11.50;99.90
55721;DHT22;41626;53.098;6.168;2022-11-09T04:36:48;11.50;99.90
55721;DHT22;41626;53.098;6.168;2022-11-09T04:39:14;11.50;99.90
55721;DHT22;41626;53.098;6.168;2022-11-09T04:41:40;11.40;99.90
55721;DHT22;41626;53.098;6.168;2022-11-09T04:44:05;11.40;99.90
55721;DHT22;41626;53.098;6.168;2022-11-09T04:46:31;11.40;99.90
55721;DHT22;41626;53.098;6.168;2022-11-09T04:48:57;11.40;99.90
55721;DHT22;41626;53.098;6.168;2022-11-09T04:51:22;11.50;99.90
55721;DHT22;41626;53.098;6.168;2022-11-09T04:53:48;11.40;99.90
55721;DHT22;41626;53.098;6.168;2022-11-09T04:56:13;11.50;99.90
55721;DHT22;41626;53.098;6.168;2022-11-09T04:58:39;11.40;99.90
55721;DHT22;41626;53.098;6.168;2022-11-09T05:01:14;11.50;99.90
55721;DHT22;41626;53.098;6.168;2022-11-09T05:03:40;11.50;99.90
55721;DHT22;41626;53.098;6.168;2022-11-09T05:06:06;11.50;99.90
55721;DHT22;41626;53.098;6.168;2022-11-09T05:08:54;11.50;99.90
55721;DHT22;41626;53.098;6.168;2022-11-09T05:11:20;11.50;99.90
55721;DHT22;41626;53.098;6.168;2022-11-09T05:13:46;11.60;99.90
55721;DHT22;41626;53.098;6.168;2022-11-09T05:16:12;11.50;99.90
55721;DHT22;41626;53.098;6.168;2022-11-09T05:18:38;11.40;99.90
55721;DHT22;41626;53.098;6.168;2022-11-09T05:21:04;11.50;99.90
55721;DHT22;41626;53.098;6.168;2022-11-09T05:23:29;11.50;99.90
55721;DHT22;41626;53.098;6.168;2022-11-09T05:26:14;11.50;99.90
55721;DHT22;41626;53.098;6.168;2022-11-09T05:28:39;11.60;99.90
55721;DHT22;41626;53.098;6.168;2022-11-09T05:31:05;11.50;99.90
55721;DHT22;41626;53.098;6.168;2022-11-09T05:33:31;11.40;99.90
55721;DHT22;41626;53.098;6.168;2022-11-09T05:35:57;11.50;99.90
55721;DHT22;41626;53.098;6.168;2022-11-09T05:38:23;11.50;99.90
55721;DHT22;41626;53.098;6.168;2022-11-09T05:40:50;11.60;99.90
55721;DHT22;41626;53.098;6.168;2022-11-09T05:43:16;11.50;99.90
55721;DHT22;41626;53.098;6.168;2022-11-09T05:45:45;11.60;99.90
55721;DHT22;41626;53.098;6.168;2022-11-09T05:48:13;11.60;99.90
55721;DHT22;41626;53.098;6.168;2022-11-09T05:50:39;11.60;99.90
55721;DHT22;41626;53.098;6.168;2022-11-09T05:53:09;11.50;99.90
55721;DHT22;41626;53.098;6.168;2022-11-09T05:55:35;11.50;99.90
55721;DHT22;41626;53.098;6.168;2022-11-09T05:58:01;11.30;99.90
55721;DHT22;41626;53.098;6.168;2022-11-09T06:00:27;11.40;99.90
55721;DHT22;41626;53.098;6.168;2022-11-09T06:02:53;11.30;99.90
55721;DHT22;41626;53.098;6.168;2022-11-09T06:05:19;11.30;99.90
55721;DHT22;41626;53.098;6.168;2022-11-09T06:07:45;11.30;99.90
55721;DHT22;41626;53.098;6.168;2022-11-09T06:10:11;11.20;99.90
55721;DHT22;41626;53.098;6.168;2022-11-09T06:12:37;11.30;99.90
55721;DHT22;41626;53.098;6.168;2022-11-09T06:15:03;11.20;99.90
55721;DHT22;41626;53.098;6.168;2022-11-09T06:17:29;11.20;99.90
55721;DHT22;41626;53.098;6.168;2022-11-09T06:19:55;11.20;99.90
55721;DHT22;41626;53.098;6.168;2022-11-09T06:22:21;11.10;99.90
55721;DHT22;41626;53.098;6.168;2022-11-09T06:24:47;11.20;99.90
55721;DHT22;41626;53.098;6.168;2022-11-09T06:27:12;11.20;99.90
55721;DHT22;41626;53.098;6.168;2022-11-09T06:29:38;11.20;99.90
55721;DHT22;41626;53.098;6.168;2022-11-09T06:32:04;11.10;99.90
55721;DHT22;41626;53.098;6.168;2022-11-09T06:34:29;11.10;99.90
55721;DHT22;41626;53.098;6.168;2022-11-09T06:36:55;11.20;99.90
55721;DHT22;41626;53.098;6.168;2022-11-09T06:39:21;11.10;99.90
55721;DHT22;41626;53.098;6.168;2022-11-09T06:41:47;11.10;99.90
55721;DHT22;41626;53.098;6.168;2022-11-09T06:44:12;11.20;99.90
55721;DHT22;41626;53.098;6.168;2022-11-09T06:46:38;11.20;99.90
55721;DHT22;41626;53.098;6.168;2022-11-09T06:49:03;11.10;99.90
55721;DHT22;41626;53.098;6.168;2022-11-09T06:51:29;11.20;99.90
55721;DHT22;41626;53.098;6.168;2022-11-09T06:53:55;11.10;99.90
55721;DHT22;41626;53.098;6.168;2022-11-09T06:56:21;11.10;99.90
55721;DHT22;41626;53.098;6.168;2022-11-09T06:58:46;11.10;99.90
55721;DHT22;41626;53.098;6.168;2022-11-09T07:01:16;11.20;99.90
55721;DHT22;41626;53.098;6.168;2022-11-09T07:03:42;11.10;99.90
55721;DHT22;41626;53.098;6.168;2022-11-09T07:06:10;11.20;99.90
55721;DHT22;41626;53.098;6.168;2022-11-09T07:08:36;11.10;99.90
55721;DHT22;41626;53.098;6.168;2022-11-09T07:11:07;11.10;99.90
55721;DHT22;41626;53.098;6.168;2022-11-09T07:13:34;11.10;99.90
55721;DHT22;41626;53.098;6.168;2022-11-09T07:16:00;11.10;99.90
55721;DHT22;41626;53.098;6.168;2022-11-09T07:18:25;11.10;99.90
55721;DHT22;41626;53.098;6.168;2022-11-09T07:20:51;11.00;99.90
55721;DHT22;41626;53.098;6.168;2022-11-09T07:23:17;11.10;99.90
55721;DHT22;41626;53.098;6.168;2022-11-09T07:25:43;11.10;99.90
55721;DHT22;41626;53.098;6.168;2022-11-09T07:28:10;11.00;99.90
55721;DHT22;41626;53.098;6.168;2022-11-09T07:30:36;11.00;99.90
55721;DHT22;41626;53.098;6.168;2022-11-09T07:33:03;11.00;99.90
55721;DHT22;41626;53.098;6.168;2022-11-09T07:35:29;11.10;99.90
55721;DHT22;41626;53.098;6.168;2022-11-09T07:37:59;11.10;99.90
55721;DHT22;41626;53.098;6.168;2022-11-09T07:40:25;11.10;99.90
55721;DHT22;41626;53.098;6.168;2022-11-09T07:42:51;11.10;99.90
55721;DHT22;41626;53.098;6.168;2022-11-09T07:45:16;11.10;99.90
55721;DHT22;41626;53.098;6.168;2022-11-09T07:47:42;11.10;99.90
55721;DHT22;41626;53.098;6.168;2022-11-09T07:50:08;11.10;99.90
55721;DHT22;41626;53.098;6.168;2022-11-09T07:52:34;11.30;99.90
55721;DHT22;41626;53.098;6.168;2022-11-09T07:54:59;11.20;99.90
55721;DHT22;41626;53.098;6.168;2022-11-09T07:57:25;11.20;99.90
55721;DHT22;41626;53.098;6.168;2022-11-09T07:59:50;11.30;99.90
55721;DHT22;41626;53.098;6.168;2022-11-09T08:02:18;11.30;99.90
55721;DHT22;41626;53.098;6.168;2022-11-09T08:04:43;11.30;99.90
55721;DHT22;41626;53.098;6.168;2022-11-09T08:07:09;11.30;99.90
55721;DHT22;41626;53.098;6.168;2022-11-09T08:09:34;11.40;99.90
55721;DHT22;41626;53.098;6.168;2022-11-09T08:12:00;11.40;99.90
55721;DHT22;41626;53.098;6.168;2022-11-09T08:14:26;11.40;99.90
55721;DHT22;41626;53.098;6.168;2022-11-09T08:16:51;11.30;99.90
55721;DHT22;41626;53.098;6.168;2022-11-09T08:19:17;11.40;99.90
55721;DHT22;41626;53.098;6.168;2022-11-09T08:21:43;11.40;99.90
55721;DHT22;41626;53.098;6.168;2022-11-09T08:24:08;11.60;99.90
55721;DHT22;41626;53.098;6.168;2022-11-09T08:26:34;11.60;99.90
55721;DHT22;41626;53.098;6.168;2022-11-09T08:28:59;11.70;99.90
55721;DHT22;41626;53.098;6.168;2022-11-09T08:31:25;11.80;99.90
55721;DHT22;41626;53.098;6.168;2022-11-09T08:33:51;11.90;99.90
55721;DHT22;41626;53.098;6.168;2022-11-09T08:36:17;11.90;99.90
55721;DHT22;41626;53.098;6.168;2022-11-09T08:38:44;12.00;99.90
55721;DHT22;41626;53.098;6.168;2022-11-09T08:41:11;11.90;99.90
55721;DHT22;41626;53.098;6.168;2022-11-09T08:43:37;12.00;99.90
55721;DHT22;41626;53.098;6.168;2022-11-09T08:46:03;12.00;99.90
55721;DHT22;41626;53.098;6.168;2022-11-09T08:48:29;12.10;99.90
55721;DHT22;41626;53.098;6.168;2022-11-09T08:50:57;12.10;99.90
55721;DHT22;41626;53.098;6.168;2022-11-09T08:53:24;12.10;99.90
55721;DHT22;41626;53.098;6.168;2022-11-09T08:55:50;12.20;99.90
55721;DHT22;41626;53.098;6.168;2022-11-09T08:58:17;12.20;99.90
55721;DHT22;41626;53.098;6.168;2022-11-09T09:00:43;12.20;99.90
55721;DHT22;41626;53.098;6.168;2022-11-09T09:03:08;12.30;99.90
55721;DHT22;41626;53.098;6.168;2022-11-09T09:05:35;12.30;99.90
55721;DHT22;41626;53.098;6.168;2022-11-09T09:08:02;12.30;99.90
55721;DHT22;41626;53.098;6.168;2022-11-09T09:10:29;12.40;99.90
55721;DHT22;41626;53.098;6.168;2022-11-09T09:13:03;12.40;99.90
55721;DHT22;41626;53.098;6.168;2022-11-09T09:15:29;12.50;99.90
55721;DHT22;41626;53.098;6.168;2022-11-09T09:17:55;12.50;99.90
55721;DHT22;41626;53.098;6.168;2022-11-09T09:20:20;12.50;99.90
55721;DHT22;41626;53.098;6.168;2022-11-09T09:22:46;12.50;99.90
55721;DHT22;41626;53.098;6.168;2022-11-09T09:25:11;12.60;99.90
55721;DHT22;41626;53.098;6.168;2022-11-09T09:27:37;12.60;99.90
55721;DHT22;41626;53.098;6.168;2022-11-09T09:30:03;12.60;99.90
55721;DHT22;41626;53.098;6.168;2022-11-09T09:32:29;12.70;99.90
55721;DHT22;41626;53.098;6.168;2022-11-09T09:34:55;12.60;99.90
55721;DHT22;41626;53.098;6.168;2022-11-09T09:37:21;12.70;99.90
55721;DHT22;41626;53.098;6.168;2022-11-09T09:39:47;12.70;99.90
55721;DHT22;41626;53.098;6.168;2022-11-09T09:42:21;12.80;99.90
55721;DHT22;41626;53.098;6.168;2022-11-09T09:44:50;12.90;99.90
55721;DHT22;41626;53.098;6.168;2022-11-09T09:50:26;12.90;99.90
55721;DHT22;41626;53.098;6.168;2022-11-09T09:53:13;13.00;99.90
55721;DHT22;41626;53.098;6.168;2022-11-09T09:55:46;13.00;99.90
55721;DHT22;41626;53.098;6.168;2022-11-09T09:58:23;13.00;99.90
55721;DHT22;41626;53.098;6.168;2022-11-09T10:01:14;13.00;99.90
55721;DHT22;41626;53.098;6.168;2022-11-09T10:03:40;13.00;99.90
55721;DHT22;41626;53.098;6.168;2022-11-09T10:08:46;13.20;99.90
55721;DHT22;41626;53.098;6.168;2022-11-09T10:11:44;13.20;99.90
55721;DHT22;41626;53.098;6.168;2022-11-09T10:14:28;13.20;99.90
55721;DHT22;41626;53.098;6.168;2022-11-09T10:17:27;13.10;99.90
55721;DHT22;41626;53.098;6.168;2022-11-09T10:20:30;13.10;99.90
55721;DHT22;41626;53.098;6.168;2022-11-09T10:25:45;13.00;99.90
55721;DHT22;41626;53.098;6.168;2022-11-09T10:28:14;13.10;99.90
55721;DHT22;41626;53.098;6.168;2022-11-09T10:30:41;13.20;99.90
55721;DHT22;41626;53.098;6.168;2022-11-09T10:35:44;13.20;99.90
55721;DHT22;41626;53.098;6.168;2022-11-09T10:38:24;13.10;99.90
55721;DHT22;41626;53.098;6.168;2022-11-09T10:40:51;13.10;99.90
55721;DHT22;41626;53.098;6.168;2022-11-09T10:43:18;13.20;99.90
55721;DHT22;41626;53.098;6.168;2022-11-09T10:45:44;13.10;99.90
55721;DHT22;41626;53.098;6.168;2022-11-09T10:48:11;13.10;99.90
55721;DHT22;41626;53.098;6.168;2022-11-09T10:53:21;13.00;99.90
55721;DHT22;41626;53.098;6.168;2022-11-09T10:55:55;13.00;99.90
55721;DHT22;41626;53.098;6.168;2022-11-09T10:58:31;13.00;99.90
55721;DHT22;41626;53.098;6.168;2022-11-09T11:01:12;13.10;99.90
55721;DHT22;41626;53.098;6.168;2022-11-09T11:03:39;13.10;99.90
55721;DHT22;41626;53.098;6.168;2022-11-09T11:06:17;13.00;99.90
55721;DHT22;41626;53.098;6.168;2022-11-09T11:08:45;13.10;99.90
55721;DHT22;41626;53.098;6.168;2022-11-09T11:13:47;13.00;99.90
55721;DHT22;41626;53.098;6.168;2022-11-09T11:16:34;13.10;99.90
55721;DHT22;41626;53.098;6.168;2022-11-09T11:19:01;13.00;99.90
55721;DHT22;41626;53.098;6.168;2022-11-09T11:21:27;13.00;99.90
55721;DHT22;41626;53.098;6.168;2022-11-09T11:24:18;12.90;99.90
55721;DHT22;41626;53.098;6.168;2022-11-09T11:27:30;12.80;99.90
55721;DHT22;41626;53.098;6.168;2022-11-09T11:30:12;12.90;99.90
55721;DHT22;41626;53.098;6.168;2022-11-09T11:32:39;13.00;99.90
55721;DHT22;41626;53.098;6.168;2022-11-09T11:35:12;13.00;99.90
55721;DHT22;41626;53.098;6.168;2022-11-09T11:40:39;13.10;99.90
55721;DHT22;41626;53.098;6.168;2022-11-09T11:46:09;13.20;99.90
55721;DHT22;41626;53.098;6.168;2022-11-09T11:54:38;13.20;99.90
55721;DHT22;41626;53.098;6.168;2022-11-09T11:57:22;13.20;99.90
55721;DHT22;41626;53.098;6.168;2022-11-09T12:09:09;13.10;99.90
55721;DHT22;41626;53.098;6.168;2022-11-09T12:12:04;13.00;99.90
55721;DHT22;41626;53.098;6.168;2022-11-09T12:20:25;13.10;99.90
55721;DHT22;41626;53.098;6.168;2022-11-09T12:25:56;13.40;99.90
55721;DHT22;41626;53.098;6.168;2022-11-09T12:31:45;13.60;99.90
55721;DHT22;41626;53.098;6.168;2022-11-09T12:37:03;13.50;99.90
55721;DHT22;41626;53.098;6.168;2022-11-09T12:39:53;13.50;99.90
55721;DHT22;41626;53.098;6.168;2022-11-09T12:42:38;13.40;99.90
55721;DHT22;41626;53.098;6.168;2022-11-09T12:45:31;13.30;99.90
55721;DHT22;41626;53.098;6.168;2022-11-09T12:48:12;13.10;99.90
55721;DHT22;41626;53.098;6.168;2022-11-09T12:50:39;13.00;99.90
55721;DHT22;41626;53.098;6.168;2022-11-09T12:53:06;12.90;99.90
55721;DHT22;41626;53.098;6.168;2022-11-09T12:58:21;12.90;99.90
55721;DHT22;41626;53.098;6.168;2022-11-09T13:00:51;12.80;99.90
55721;DHT22;41626;53.098;6.168;2022-11-09T13:03:29;12.70;99.90
55721;DHT22;41626;53.098;6.168;2022-11-09T13:06:18;12.60;99.90
55721;DHT22;41626;53.098;6.168;2022-11-09T13:11:25;12.20;99.90
55721;DHT22;41626;53.098;6.168;2022-11-09T13:16:56;12.10;99.90
55721;DHT22;41626;53.098;6.168;2022-11-09T13:19:47;12.10;99.90
55721;DHT22;41626;53.098;6.168;2022-11-09T13:27:44;12.40;99.90
55721;DHT22;41626;53.098;6.168;2022-11-09T13:40:49;12.50;99.90
55721;DHT22;41626;53.098;6.168;2022-11-09T13:43:23;12.40;99.90
55721;DHT22;41626;53.098;6.168;2022-11-09T13:51:08;12.50;99.90
55721;DHT22;41626;53.098;6.168;2022-11-09T13:56:27;12.40;99.90
55721;DHT22;41626;53.098;6.168;2022-11-09T13:59:01;12.40;99.90
55721;DHT22;41626;53.098;6.168;2022-11-09T14:01:34;12.40;99.90
55721;DHT22;41626;53.098;6.168;2022-11-09T14:04:00;12.40;99.90
55721;DHT22;41626;53.098;6.168;2022-11-09T14:06:30;12.30;99.90
55721;DHT22;41626;53.098;6.168;2022-11-09T14:08:57;12.40;99.90
55721;DHT22;41626;53.098;6.168;2022-11-09T14:14:28;12.20;99.90
55721;DHT22;41626;53.098;6.168;2022-11-09T14:17:05;12.20;99.90
55721;DHT22;41626;53.098;6.168;2022-11-09T14:20:12;12.10;99.90
55721;DHT22;41626;53.098;6.168;2022-11-09T14:22:39;11.90;99.90
55721;DHT22;41626;53.098;6.168;2022-11-09T14:25:25;11.80;99.90
55721;DHT22;41626;53.098;6.168;2022-11-09T14:27:52;11.60;99.90
55721;DHT22;41626;53.098;6.168;2022-11-09T14:30:29;11.60;99.90
55721;DHT22;41626;53.098;6.168;2022-11-09T14:32:56;11.70;99.90
55721;DHT22;41626;53.098;6.168;2022-11-09T14:35:34;11.60;99.90
55721;DHT22;41626;53.098;6.168;2022-11-09T14:38:16;11.70;99.90
55721;DHT22;41626;53.098;6.168;2022-11-09T14:40:45;11.50;99.90
55721;DHT22;41626;53.098;6.168;2022-11-09T14:43:24;11.50;99.90
55721;DHT22;41626;53.098;6.168;2022-11-09T14:46:00;11.40;99.90
55721;DHT22;41626;53.098;6.168;2022-11-09T14:48:28;11.50;99.90
55721;DHT22;41626;53.098;6.168;2022-11-09T14:50:57;11.60;99.90
55721;DHT22;41626;53.098;6.168;2022-11-09T14:53:31;11.40;99.90
55721;DHT22;41626;53.098;6.168;2022-11-09T14:56:00;11.40;99.90
55721;DHT22;41626;53.098;6.168;2022-11-09T14:58:29;11.40;99.90
55721;DHT22;41626;53.098;6.168;2022-11-09T15:01:25;11.40;99.90
55721;DHT22;41626;53.098;6.168;2022-11-09T15:07:04;11.30;99.90
55721;DHT22;41626;53.098;6.168;2022-11-09T15:09:43;11.30;99.90
55721;DHT22;41626;53.098;6.168;2022-11-09T15:12:18;11.30;99.90
55721;DHT22;41626;53.098;6.168;2022-11-09T15:14:54;11.30;99.90
55721;DHT22;41626;53.098;6.168;2022-11-09T15:17:35;11.30;99.90
55721;DHT22;41626;53.098;6.168;2022-11-09T15:38:38;11.10;99.90
55721;DHT22;41626;53.098;6.168;2022-11-09T15:41:17;11.10;99.90
55721;DHT22;41626;53.098;6.168;2022-11-09T15:43:44;11.00;99.90
55721;DHT22;41626;53.098;6.168;2022-11-09T15:46:18;11.00;99.90
55721;DHT22;41626;53.098;6.168;2022-11-09T15:48:45;11.10;99.90
55721;DHT22;41626;53.098;6.168;2022-11-09T15:51:12;11.00;99.90
55721;DHT22;41626;53.098;6.168;2022-11-09T15:53:38;11.10;99.90
55721;DHT22;41626;53.098;6.168;2022-11-09T15:56:04;11.00;99.90
55721;DHT22;41626;53.098;6.168;2022-11-09T15:58:30;11.10;99.90
55721;DHT22;41626;53.098;6.168;2022-11-09T16:00:55;10.90;99.90
55721;DHT22;41626;53.098;6.168;2022-11-09T16:03:21;11.00;99.90
55721;DHT22;41626;53.098;6.168;2022-11-09T16:05:47;10.90;99.90
55721;DHT22;41626;53.098;6.168;2022-11-09T16:08:12;10.90;99.90
55721;DHT22;41626;53.098;6.168;2022-11-09T16:10:39;11.00;99.90
55721;DHT22;41626;53.098;6.168;2022-11-09T16:13:06;11.00;99.90
55721;DHT22;41626;53.098;6.168;2022-11-09T16:15:33;10.80;99.90
55721;DHT22;41626;53.098;6.168;2022-11-09T16:18:00;10.80;99.90
55721;DHT22;41626;53.098;6.168;2022-11-09T16:20:25;10.80;99.90
55721;DHT22;41626;53.098;6.168;2022-11-09T16:22:51;10.90;99.90
55721;DHT22;41626;53.098;6.168;2022-11-09T16:25:17;11.00;99.90
55721;DHT22;41626;53.098;6.168;2022-11-09T16:27:43;11.10;99.90
55721;DHT22;41626;53.098;6.168;2022-11-09T16:30:10;10.90;99.90
55721;DHT22;41626;53.098;6.168;2022-11-09T16:32:36;11.10;99.90
55721;DHT22;41626;53.098;6.168;2022-11-09T16:35:03;10.90;99.90
55721;DHT22;41626;53.098;6.168;2022-11-09T16:37:31;10.90;99.90
55721;DHT22;41626;53.098;6.168;2022-11-09T16:40:00;10.80;99.90
55721;DHT22;41626;53.098;6.168;2022-11-09T16:42:29;11.00;99.90
55721;DHT22;41626;53.098;6.168;2022-11-09T16:44:58;10.80;99.90
55721;DHT22;41626;53.098;6.168;2022-11-09T16:47:28;10.80;99.90
55721;DHT22;41626;53.098;6.168;2022-11-09T16:49:53;10.70;99.90
55721;DHT22;41626;53.098;6.168;2022-11-09T16:52:19;10.80;99.90
55721;DHT22;41626;53.098;6.168;2022-11-09T16:54:45;10.80;99.90
55721;DHT22;41626;53.098;6.168;2022-11-09T16:57:10;10.70;99.90
55721;DHT22;41626;53.098;6.168;2022-11-09T16:59:36;10.90;99.90
55721;DHT22;41626;53.098;6.168;2022-11-09T17:02:01;10.70;99.90
55721;DHT22;41626;53.098;6.168;2022-11-09T17:04:27;11.00;99.90
55721;DHT22;41626;53.098;6.168;2022-11-09T17:06:53;10.70;99.90
55721;DHT22;41626;53.098;6.168;2022-11-09T17:09:18;10.80;99.90
55721;DHT22;41626;53.098;6.168;2022-11-09T17:11:45;10.90;99.90
55721;DHT22;41626;53.098;6.168;2022-11-09T17:14:10;10.90;99.90
55721;DHT22;41626;53.098;6.168;2022-11-09T17:16:36;10.80;99.90
55721;DHT22;41626;53.098;6.168;2022-11-09T17:19:02;10.90;99.90
55721;DHT22;41626;53.098;6.168;2022-11-09T17:21:30;10.90;99.90
55721;DHT22;41626;53.098;6.168;2022-11-09T17:23:56;10.80;99.90
55721;DHT22;41626;53.098;6.168;2022-11-09T17:26:23;10.80;99.90
55721;DHT22;41626;53.098;6.168;2022-11-09T17:28:49;10.80;99.90
55721;DHT22;41626;53.098;6.168;2022-11-09T17:31:17;10.90;99.90